createdAt,value
2024-04-21T00:01:26.364Z,3.23
2024-04-21T00:03:57.004Z,3.21
2024-04-21T00:06:29.084Z,3.18
2024-04-21T00:09:00.058Z,3.17
2024-04-21T00:11:31.809Z,3.20
2024-04-21T00:14:02.610Z,3.24
2024-04-21T00:16:34.521Z,3.26
2024-04-21T00:19:05.016Z,3.25
2024-04-21T00:21:36.479Z,3.25
2024-04-21T00:24:07.201Z,3.24
2024-04-21T00:26:38.858Z,3.23
2024-04-21T00:29:09.373Z,3.19
2024-04-21T00:31:41.548Z,3.15
2024-04-21T00:34:12.510Z,3.11
2024-04-21T00:36:44.895Z,3.09
2024-04-21T00:39:15.269Z,3.05
2024-04-21T00:41:47.233Z,3.05
2024-04-21T00:44:17.667Z,3.07
2024-04-21T00:46:49.383Z,3.10
2024-04-21T00:49:19.950Z,3.13
2024-04-21T00:51:51.739Z,3.13
2024-04-21T00:54:22.541Z,3.11
2024-04-21T00:56:54.401Z,3.08
2024-04-21T00:59:24.839Z,3.06
2024-04-21T01:01:56.923Z,3.04
2024-04-21T01:04:27.407Z,3.00
2024-04-21T01:06:59.197Z,2.99
2024-04-21T01:09:29.814Z,2.97
2024-04-21T01:12:01.628Z,2.96
2024-04-21T01:14:32.095Z,2.97
2024-04-21T01:17:04.644Z,3.00
2024-04-21T01:19:35.103Z,3.04
2024-04-21T01:22:07.318Z,3.08
2024-04-21T01:24:37.795Z,3.09
2024-04-21T01:27:09.557Z,3.09
2024-04-21T01:29:40.087Z,3.08
2024-04-21T01:32:23.647Z,3.05
2024-04-21T01:34:55.466Z,3.04
2024-04-21T01:37:25.899Z,3.01
2024-04-21T01:39:57.986Z,2.97
2024-04-21T01:42:28.593Z,2.92
2024-04-21T01:45:00.556Z,2.88
2024-04-21T01:47:30.992Z,2.88
2024-04-21T01:50:02.767Z,2.89
2024-04-21T01:52:33.275Z,2.91
2024-04-21T01:55:05.373Z,2.94
2024-04-21T01:57:37.267Z,2.94
2024-04-21T02:00:09.363Z,2.92
2024-04-21T02:02:47.300Z,2.90
2024-04-21T02:05:17.815Z,2.89
2024-04-21T02:07:49.339Z,2.86
2024-04-21T02:10:19.972Z,2.83
2024-04-21T02:12:51.756Z,2.81
2024-04-21T02:15:22.172Z,2.79
2024-04-21T02:17:53.952Z,2.79
2024-04-21T02:20:24.754Z,2.80
2024-04-21T02:22:56.403Z,2.82
2024-04-21T02:25:27.617Z,2.84
2024-04-21T02:27:59.934Z,2.84
2024-04-21T02:30:30.668Z,2.82
2024-04-21T02:33:03.270Z,2.80
2024-04-21T02:35:33.774Z,2.78
2024-04-21T02:38:05.517Z,2.76
2024-04-21T02:40:36.149Z,2.73
2024-04-21T02:43:08.126Z,2.69
2024-04-21T02:45:38.758Z,2.69
2024-04-21T02:48:10.510Z,2.67
2024-04-21T02:50:40.715Z,2.69
2024-04-21T02:53:12.684Z,2.74
2024-04-21T02:55:46.693Z,2.75
2024-04-21T02:58:19.152Z,2.75
2024-04-21T03:00:49.580Z,2.77
2024-04-21T03:03:21.537Z,2.77
2024-04-21T03:05:56.707Z,2.75
2024-04-21T03:08:28.655Z,2.74
2024-04-21T03:10:59.261Z,2.69
2024-04-21T03:13:31.082Z,2.65
2024-04-21T03:16:05.578Z,2.62
2024-04-21T03:18:37.421Z,2.59
2024-04-21T03:21:07.856Z,2.59
2024-04-21T03:23:39.908Z,2.60
2024-04-21T03:26:10.332Z,2.63
2024-04-21T03:28:42.006Z,2.65
2024-04-21T03:31:12.556Z,2.65
2024-04-21T03:33:44.176Z,2.65
2024-04-21T03:36:14.707Z,2.64
2024-04-21T03:38:46.570Z,2.62
2024-04-21T03:41:17.083Z,2.57
2024-04-21T03:43:49.252Z,2.52
2024-04-21T03:46:23.179Z,2.46
2024-04-21T03:48:56.595Z,2.42
2024-04-21T03:51:26.996Z,2.40
2024-04-21T03:53:58.753Z,2.41
2024-04-21T03:56:29.069Z,2.43
2024-04-21T03:59:00.824Z,2.45
2024-04-21T04:01:31.419Z,2.45
2024-04-21T04:04:04.192Z,2.45
2024-04-21T04:06:34.671Z,2.49
2024-04-21T04:09:06.549Z,2.51
2024-04-21T04:11:37.437Z,2.51
2024-04-21T04:14:09.224Z,2.64
2024-04-21T04:16:39.749Z,2.68
2024-04-21T04:19:11.669Z,2.68
2024-04-21T04:21:41.932Z,2.67
2024-04-21T04:24:13.796Z,2.65
2024-04-21T04:26:44.232Z,2.63
2024-04-21T04:29:15.801Z,2.60
2024-04-21T04:31:45.990Z,2.61
2024-04-21T04:34:17.859Z,2.61
2024-04-21T04:36:48.685Z,2.59
2024-04-21T04:39:20.758Z,2.61
2024-04-21T04:41:51.290Z,2.67
2024-04-21T04:44:22.936Z,2.73
2024-04-21T04:46:53.370Z,2.74
2024-04-21T04:49:25.198Z,2.78
2024-04-21T04:51:55.777Z,2.79
2024-04-21T04:54:27.518Z,2.81
2024-04-21T04:56:58.247Z,2.88
2024-04-21T04:59:30.106Z,2.97
2024-04-21T05:02:00.589Z,2.99
2024-04-21T05:04:32.863Z,3.06
2024-04-21T05:07:03.350Z,3.17
2024-04-21T05:09:35.396Z,3.28
2024-04-21T05:12:06.239Z,3.35
2024-04-21T05:14:38.047Z,3.38
2024-04-21T05:17:08.553Z,3.39
2024-04-21T05:19:40.576Z,3.43
2024-04-21T05:22:11.030Z,3.52
2024-04-21T05:24:42.985Z,3.48
2024-04-21T05:27:14.976Z,3.44
2024-04-21T05:29:48.118Z,3.40
2024-04-21T05:32:18.610Z,3.33
2024-04-21T05:34:50.320Z,3.30
2024-04-21T05:37:20.768Z,3.30
2024-04-21T05:39:52.634Z,3.34
2024-04-21T05:42:23.118Z,3.34
2024-04-21T05:44:54.672Z,3.29
2024-04-21T05:47:25.133Z,3.25
2024-04-21T05:49:56.957Z,3.22
2024-04-21T05:52:27.447Z,3.21
2024-04-21T05:54:59.191Z,3.25
2024-04-21T05:57:29.676Z,3.28
2024-04-21T06:00:01.963Z,3.32
2024-04-21T06:02:37.078Z,3.34
2024-04-21T06:05:07.747Z,3.34
2024-04-21T06:07:39.461Z,3.38
2024-04-21T06:10:10.371Z,3.42
2024-04-21T06:12:42.366Z,3.46
2024-04-21T06:15:12.688Z,3.54
2024-04-21T06:17:44.514Z,3.59
2024-04-21T06:20:15.173Z,3.59
2024-04-21T06:22:46.934Z,3.60
2024-04-21T06:25:17.418Z,3.61
2024-04-21T06:27:49.267Z,3.59
2024-04-21T06:30:19.850Z,3.56
2024-04-21T06:32:52.072Z,3.53
2024-04-21T06:35:22.444Z,3.55
2024-04-21T06:37:54.205Z,3.61
2024-04-21T06:40:24.885Z,3.66
2024-04-21T06:42:57.131Z,3.66
2024-04-21T06:45:28.045Z,3.61
2024-04-21T06:47:59.859Z,3.62
2024-04-21T06:50:33.579Z,3.62
2024-04-21T06:53:06.159Z,3.60
2024-04-21T06:55:36.611Z,3.61
2024-04-21T06:58:08.816Z,3.74
2024-04-21T07:00:40.942Z,3.92
2024-04-21T07:03:13.116Z,4.06
2024-04-21T07:05:43.633Z,4.07
2024-04-21T07:08:15.404Z,4.13
2024-04-21T07:10:45.946Z,4.19
2024-04-21T07:13:17.807Z,4.23
2024-04-21T07:15:48.249Z,4.28
2024-04-21T07:18:20.068Z,4.37
2024-04-21T07:20:50.700Z,4.52
2024-04-21T07:23:22.357Z,4.71
2024-04-21T07:25:53.254Z,4.94
2024-04-21T07:28:25.645Z,5.15
2024-04-21T07:30:56.130Z,5.32
2024-04-21T07:33:27.742Z,5.46
2024-04-21T07:35:58.165Z,5.57
2024-04-21T07:38:29.823Z,5.62
2024-04-21T07:41:00.356Z,5.52
2024-04-21T07:43:32.106Z,5.43
2024-04-21T07:46:03.625Z,5.37
2024-04-21T07:48:35.350Z,5.28
2024-04-21T07:51:05.846Z,5.22
2024-04-21T07:53:37.402Z,5.22
2024-04-21T07:56:08.029Z,5.24
2024-04-21T07:58:39.796Z,5.33
2024-04-21T08:01:10.430Z,5.37
2024-04-21T08:03:42.196Z,5.37
2024-04-21T08:06:13.005Z,5.38
2024-04-21T08:08:46.891Z,5.39
2024-04-21T08:11:20.755Z,5.42
2024-04-21T08:13:52.276Z,5.41
2024-04-21T08:16:24.107Z,5.37
2024-04-21T08:18:55.011Z,5.33
2024-04-21T08:21:26.837Z,5.28
2024-04-21T08:23:57.266Z,5.27
2024-04-21T08:26:29.025Z,5.26
2024-04-21T08:28:59.444Z,5.30
2024-04-21T08:31:31.570Z,5.31
2024-04-21T08:34:02.143Z,5.24
2024-04-21T08:36:34.003Z,5.16
2024-04-21T08:39:05.800Z,5.11
2024-04-21T08:41:41.095Z,5.07
2024-04-21T08:44:14.630Z,5.05
2024-04-21T08:46:45.122Z,5.01
2024-04-21T08:49:17.426Z,5.02
2024-04-21T08:51:47.921Z,5.01
2024-04-21T08:54:20.002Z,5.02
2024-04-21T08:56:52.214Z,4.96
2024-04-21T08:59:24.947Z,4.90
2024-04-21T09:01:56.308Z,4.85
2024-04-21T09:04:28.793Z,4.81
2024-04-21T09:06:59.343Z,4.76
2024-04-21T09:09:31.663Z,4.69
2024-04-21T09:12:02.282Z,4.64
2024-04-21T09:14:44.492Z,4.66
2024-04-21T09:17:16.570Z,4.70
2024-04-21T09:19:47.074Z,4.74
2024-04-21T09:22:18.757Z,4.78
2024-04-21T09:24:49.394Z,4.89
2024-04-21T09:27:21.020Z,5.00
2024-04-21T09:29:51.445Z,5.07
2024-04-21T09:32:23.138Z,5.16
2024-04-21T09:34:57.112Z,5.26
2024-04-21T09:37:28.688Z,5.34
2024-04-21T09:39:59.597Z,5.42
2024-04-21T09:42:32.627Z,5.49
2024-04-21T09:45:03.078Z,5.52
2024-04-21T09:47:35.098Z,5.58
2024-04-21T09:50:08.920Z,5.63
2024-04-21T09:52:48.441Z,5.67
2024-04-21T09:55:20.535Z,5.69
2024-04-21T09:58:02.151Z,5.72
2024-04-21T10:00:34.554Z,5.71
2024-04-21T10:03:06.264Z,5.73
2024-04-21T10:05:38.377Z,5.78
2024-04-21T10:08:08.832Z,5.91
2024-04-21T10:10:40.586Z,6.08
2024-04-21T10:13:11.110Z,6.26
2024-04-21T10:15:42.954Z,6.46
2024-04-21T10:18:25.016Z,6.58
2024-04-21T10:20:57.622Z,6.63
2024-04-21T10:23:28.261Z,6.59
2024-04-21T10:25:59.927Z,6.54
2024-04-21T10:28:30.704Z,6.51
2024-04-21T10:31:05.551Z,6.44
2024-04-21T10:33:45.122Z,6.37
2024-04-21T10:36:20.962Z,6.33
2024-04-21T10:38:56.868Z,6.28
2024-04-21T10:41:28.476Z,6.20
2024-04-21T10:43:58.721Z,6.16
2024-04-21T10:46:30.660Z,6.11
2024-04-21T10:49:01.324Z,6.03
2024-04-21T10:51:33.913Z,5.99
2024-04-21T10:54:04.597Z,5.93
2024-04-21T10:56:37.637Z,5.86
2024-04-21T10:59:09.140Z,5.78
2024-04-21T11:01:40.814Z,5.69
2024-04-21T11:04:11.353Z,5.63
2024-04-21T11:06:43.076Z,5.63
2024-04-21T11:09:13.922Z,5.63
2024-04-21T11:11:45.472Z,5.66
2024-04-21T11:14:16.214Z,5.72
2024-04-21T11:16:54.055Z,5.79
2024-04-21T11:19:25.800Z,5.82
2024-04-21T11:21:56.526Z,5.86
2024-04-21T11:24:28.349Z,5.86
2024-04-21T11:27:00.036Z,5.88
2024-04-21T11:29:34.530Z,5.93
2024-04-21T11:32:10.389Z,5.98
2024-04-21T11:34:45.380Z,5.97
2024-04-21T11:37:20.239Z,5.97
2024-04-21T11:39:52.094Z,5.99
2024-04-21T11:42:22.738Z,6.07
2024-04-21T11:44:53.874Z,6.16
2024-04-21T11:47:24.574Z,6.18
2024-04-21T11:49:56.478Z,6.20
2024-04-21T11:52:27.049Z,6.26
2024-04-21T11:54:58.905Z,6.30
2024-04-21T11:57:29.604Z,6.34
2024-04-21T12:00:03.230Z,6.38
2024-04-21T12:02:37.523Z,6.34
2024-04-21T12:05:08.267Z,6.32
2024-04-21T12:07:40.215Z,6.31
2024-04-21T12:10:11.076Z,6.26
2024-04-21T12:12:44.029Z,6.19
2024-04-21T12:15:14.874Z,6.15
2024-04-21T12:17:46.744Z,6.16
2024-04-21T12:20:17.250Z,6.16
2024-04-21T12:22:50.649Z,6.15
2024-04-21T12:25:21.451Z,6.12
2024-04-21T12:27:53.637Z,6.09
2024-04-21T12:30:24.293Z,6.07
2024-04-21T12:32:56.575Z,6.04
2024-04-21T12:35:27.099Z,5.98
2024-04-21T12:37:59.045Z,5.96
2024-04-21T12:40:29.492Z,5.93
2024-04-21T12:43:01.373Z,5.93
2024-04-21T12:45:32.079Z,5.90
2024-04-21T12:48:05.410Z,5.85
2024-04-21T12:50:35.981Z,5.86
2024-04-21T12:53:08.789Z,5.87
2024-04-21T12:55:40.170Z,5.89
2024-04-21T12:58:12.456Z,5.86
2024-04-21T13:00:43.130Z,5.84
2024-04-21T13:03:16.016Z,5.81
2024-04-21T13:05:46.634Z,5.86
2024-04-21T13:08:19.187Z,5.92
2024-04-21T13:10:50.108Z,6.01
2024-04-21T13:13:21.937Z,6.07
2024-04-21T13:15:52.851Z,6.13
2024-04-21T13:18:24.837Z,6.15
2024-04-21T13:20:55.435Z,6.17
2024-04-21T13:23:27.307Z,6.16
2024-04-21T13:25:57.828Z,6.14
2024-04-21T13:28:29.794Z,6.11
2024-04-21T13:31:01.011Z,6.12
2024-04-21T13:33:32.844Z,6.16
2024-04-21T13:36:04.035Z,6.16
2024-04-21T13:38:36.314Z,6.14
2024-04-21T13:41:07.038Z,6.15
2024-04-21T13:43:38.917Z,6.15
2024-04-21T13:46:09.488Z,6.13
2024-04-21T13:48:41.286Z,6.13
2024-04-21T13:51:20.363Z,6.16
2024-04-21T13:54:03.534Z,6.24
2024-04-21T13:56:36.640Z,6.30
2024-04-21T13:59:07.569Z,6.30
2024-04-21T14:01:39.459Z,6.30
2024-04-21T14:04:12.098Z,6.32
2024-04-21T14:06:44.075Z,6.35
2024-04-21T14:09:14.510Z,6.36
2024-04-21T14:11:46.160Z,6.37
2024-04-21T14:14:16.788Z,6.39
2024-04-21T14:16:48.905Z,6.52
2024-04-21T14:19:19.915Z,6.64
2024-04-21T14:21:51.443Z,6.69
2024-04-21T14:24:21.966Z,6.70
2024-04-21T14:26:53.937Z,6.73
2024-04-21T14:29:24.454Z,6.75
2024-04-21T14:31:56.207Z,6.75
2024-04-21T14:34:26.662Z,6.76
2024-04-21T14:36:58.431Z,6.77
2024-04-21T14:39:28.825Z,6.80
2024-04-21T14:42:02.109Z,6.78
2024-04-21T14:44:36.550Z,6.74
2024-04-21T14:47:08.770Z,6.68
2024-04-21T14:49:39.473Z,6.62
2024-04-21T14:52:11.281Z,6.54
2024-04-21T14:54:41.825Z,6.41
2024-04-21T14:57:14.710Z,6.33
2024-04-21T14:59:45.235Z,6.29
2024-04-21T15:02:17.266Z,6.27
2024-04-21T15:04:47.848Z,6.21
2024-04-21T15:07:19.899Z,6.13
2024-04-21T15:09:50.320Z,6.07
2024-04-21T15:12:22.290Z,6.00
2024-04-21T15:14:52.710Z,5.93
2024-04-21T15:17:24.693Z,5.87
2024-04-21T15:19:56.050Z,5.83
2024-04-21T15:22:28.896Z,5.83
2024-04-21T15:24:59.560Z,5.86
2024-04-21T15:27:31.393Z,5.90
2024-04-21T15:30:02.466Z,5.90
2024-04-21T15:32:34.216Z,5.92
2024-04-21T15:35:05.152Z,5.95
2024-04-21T15:37:39.800Z,5.94
2024-04-21T15:40:13.830Z,5.89
2024-04-21T15:42:44.606Z,5.79
2024-04-21T15:45:17.816Z,5.72
2024-04-21T15:47:48.500Z,5.69
2024-04-21T15:50:20.584Z,5.64
2024-04-21T15:52:54.105Z,5.59
2024-04-21T15:55:29.162Z,5.53
2024-04-21T15:58:01.360Z,5.51
2024-04-21T16:00:34.770Z,5.48
2024-04-21T16:03:06.603Z,5.45
2024-04-21T16:05:37.382Z,5.45
2024-04-21T16:08:09.451Z,5.43
2024-04-21T16:10:42.511Z,5.42
2024-04-21T16:13:14.637Z,5.40
2024-04-21T16:15:45.877Z,5.36
2024-04-21T16:18:17.696Z,5.34
2024-04-21T16:20:48.345Z,5.33
2024-04-21T16:23:20.318Z,5.30
2024-04-21T16:25:50.938Z,5.29
2024-04-21T16:28:22.772Z,5.23
2024-04-21T16:30:53.409Z,5.21
2024-04-21T16:33:25.837Z,5.20
2024-04-21T16:35:58.437Z,5.19
2024-04-21T16:38:30.610Z,5.16
2024-04-21T16:41:01.285Z,5.14
2024-04-21T16:43:35.041Z,5.11
2024-04-21T16:46:06.249Z,5.09
2024-04-21T16:48:38.450Z,5.03
2024-04-21T16:51:09.565Z,5.01
2024-04-21T16:53:42.069Z,4.97
2024-04-21T16:56:12.728Z,4.92
2024-04-21T16:58:44.930Z,4.90
2024-04-21T17:01:15.889Z,4.89
2024-04-21T17:03:48.449Z,4.87
2024-04-21T17:06:20.308Z,4.85
2024-04-21T17:08:52.398Z,4.83
2024-04-21T17:11:23.300Z,4.83
2024-04-21T17:13:55.351Z,4.82
2024-04-21T17:16:25.791Z,4.79
2024-04-21T17:18:57.572Z,4.76
2024-04-21T17:21:28.066Z,4.77
2024-04-21T17:23:59.812Z,4.76
2024-04-21T17:26:30.246Z,4.75
2024-04-21T17:29:02.165Z,4.74
2024-04-21T17:31:32.565Z,4.75
2024-04-21T17:34:04.311Z,4.75
2024-04-21T17:36:35.336Z,4.75
2024-04-21T17:39:07.272Z,4.76
2024-04-21T17:41:38.322Z,4.76
2024-04-21T17:44:10.087Z,4.77
2024-04-21T17:46:50.676Z,4.79
2024-04-21T17:49:22.596Z,4.83
2024-04-21T17:51:53.029Z,4.82
2024-04-21T17:54:25.302Z,4.82
2024-04-21T17:56:57.731Z,4.81
2024-04-21T17:59:29.946Z,4.76
2024-04-21T18:02:00.359Z,4.71
2024-04-21T18:04:32.014Z,4.66
2024-04-21T18:07:02.730Z,4.64
2024-04-21T18:09:34.626Z,4.62
2024-04-21T18:12:05.539Z,4.59
2024-04-21T18:14:37.318Z,4.58
2024-04-21T18:17:13.984Z,4.60
2024-04-21T18:19:54.129Z,4.64
2024-04-21T18:22:24.594Z,4.68
2024-04-21T18:24:56.321Z,4.70
2024-04-21T18:27:26.871Z,4.70
2024-04-21T18:29:59.009Z,4.71
2024-04-21T18:32:29.635Z,4.69
2024-04-21T18:35:01.509Z,4.62
2024-04-21T18:37:31.963Z,4.56
2024-04-21T18:40:06.489Z,4.52
2024-04-21T18:42:39.439Z,4.52
2024-04-21T18:45:11.049Z,4.55
2024-04-21T18:47:42.871Z,4.55
2024-04-21T18:50:13.383Z,4.55
2024-04-21T18:52:45.176Z,4.54
2024-04-21T18:55:15.876Z,4.53
2024-04-21T18:57:47.629Z,4.51
2024-04-21T19:00:18.482Z,4.50
2024-04-21T19:02:52.629Z,4.47
2024-04-21T19:05:23.223Z,4.42
2024-04-21T19:07:54.961Z,4.38
2024-04-21T19:10:27.801Z,4.35
2024-04-21T19:13:00.264Z,4.36
2024-04-21T19:15:31.161Z,4.37
2024-04-21T19:18:03.474Z,4.40
2024-04-21T19:20:34.469Z,4.41
2024-04-21T19:23:10.116Z,4.42
2024-04-21T19:25:41.888Z,4.42
2024-04-21T19:28:12.320Z,4.42
2024-04-21T19:30:43.957Z,4.44
2024-04-21T19:33:14.608Z,4.41
2024-04-21T19:35:46.354Z,4.37
2024-04-21T19:38:16.874Z,4.34
2024-04-21T19:40:51.592Z,4.33
2024-04-21T19:43:24.744Z,4.34
2024-04-21T19:45:57.885Z,4.36
2024-04-21T19:48:29.792Z,4.39
2024-04-21T19:51:01.190Z,4.39
2024-04-21T19:53:33.159Z,4.39
2024-04-21T19:56:09.039Z,4.37
2024-04-21T19:58:41.609Z,4.36
2024-04-21T20:01:12.578Z,4.34
2024-04-21T20:03:44.967Z,4.33
2024-04-21T20:06:15.523Z,4.31
2024-04-21T20:08:49.164Z,4.30
2024-04-21T20:11:22.287Z,4.27
2024-04-21T20:13:54.180Z,4.26
2024-04-21T20:16:43.512Z,4.29
2024-04-21T20:19:15.552Z,4.33
2024-04-21T20:21:46.240Z,4.35
2024-04-21T20:24:18.004Z,4.37
2024-04-21T20:26:51.008Z,4.41
2024-04-21T20:29:23.971Z,4.43
2024-04-21T20:31:54.393Z,4.43
2024-04-21T20:34:26.449Z,4.40
2024-04-21T20:36:56.991Z,4.37
2024-04-21T20:39:29.571Z,4.35
2024-04-21T20:41:59.884Z,4.30
2024-04-21T20:44:31.950Z,4.25
2024-04-21T20:47:02.479Z,4.22
2024-04-21T20:49:34.679Z,4.22
2024-04-21T20:52:05.588Z,4.23
2024-04-21T20:54:37.453Z,4.26
2024-04-21T20:57:07.780Z,4.29
2024-04-21T20:59:39.530Z,4.30
2024-04-21T21:02:10.080Z,4.30
2024-04-21T21:04:42.007Z,4.29
2024-04-21T21:07:12.785Z,4.26
2024-04-21T21:09:45.037Z,4.23
2024-04-21T21:12:15.655Z,4.21
2024-04-21T21:14:47.299Z,4.20
2024-04-21T21:17:18.410Z,4.19
2024-04-21T21:19:50.214Z,4.19
2024-04-21T21:22:20.769Z,4.21
2024-04-21T21:24:52.503Z,4.26
2024-04-21T21:27:23.122Z,4.30
2024-04-21T21:29:54.682Z,4.32
2024-04-21T21:32:25.183Z,4.32
2024-04-21T21:34:56.965Z,4.33
2024-04-21T21:37:27.521Z,4.32
2024-04-21T21:39:59.347Z,4.32
2024-04-21T21:42:29.888Z,4.33
2024-04-21T21:45:01.551Z,4.33
2024-04-21T21:47:32.160Z,4.32
2024-04-21T21:50:04.355Z,4.29
2024-04-21T21:52:37.690Z,4.27
2024-04-21T21:55:09.601Z,4.23
2024-04-21T21:57:40.297Z,4.23
2024-04-21T22:00:13.401Z,4.24
2024-04-21T22:02:43.857Z,4.26
2024-04-21T22:05:15.690Z,4.26
2024-04-21T22:07:46.219Z,4.25
2024-04-21T22:10:18.310Z,4.23
2024-04-21T22:12:48.919Z,4.21
2024-04-21T22:15:21.803Z,4.19
2024-04-21T22:17:52.356Z,4.16
2024-04-21T22:20:24.192Z,4.12
2024-04-21T22:22:54.618Z,4.10
2024-04-21T22:25:26.529Z,4.09
2024-04-21T22:27:56.898Z,4.07
2024-04-21T22:30:28.552Z,4.05
2024-04-21T22:32:59.332Z,4.01
2024-04-21T22:35:31.254Z,3.98
2024-04-21T22:38:01.608Z,3.98
2024-04-21T22:40:33.364Z,4.00
2024-04-21T22:43:04.430Z,4.02
2024-04-21T22:45:36.134Z,4.03
2024-04-21T22:48:07.276Z,4.05
2024-04-21T22:50:39.035Z,4.05
2024-04-21T22:53:09.871Z,4.02
2024-04-21T22:55:41.678Z,3.98
2024-04-21T22:58:12.296Z,3.95
2024-04-21T23:00:44.941Z,3.90
2024-04-21T23:03:15.370Z,3.86
2024-04-21T23:05:47.309Z,3.82
2024-04-21T23:08:17.751Z,3.79
2024-04-21T23:10:58.364Z,3.75
2024-04-21T23:13:30.420Z,3.72
2024-04-21T23:16:05.442Z,3.69
2024-04-21T23:18:37.333Z,3.66
2024-04-21T23:21:07.902Z,3.66
2024-04-21T23:23:40.581Z,3.68
2024-04-21T23:26:11.007Z,3.68
2024-04-21T23:28:42.904Z,3.68
2024-04-21T23:31:17.153Z,3.66
2024-04-21T23:33:49.324Z,3.64
2024-04-21T23:36:19.980Z,3.61
2024-04-21T23:38:51.938Z,3.60
2024-04-21T23:41:22.371Z,3.60
2024-04-21T23:43:54.627Z,3.61
2024-04-21T23:46:25.216Z,3.62
2024-04-21T23:48:56.931Z,3.62
2024-04-21T23:51:27.457Z,3.61
2024-04-21T23:53:59.122Z,3.58
2024-04-21T23:56:29.632Z,3.53
2024-04-21T23:59:01.607Z,3.51
